createdAt,value
2022-12-22T00:00:48.274Z,61.39
2022-12-22T00:01:50.394Z,61.07
2022-12-22T00:02:48.479Z,60.59
2022-12-22T00:03:48.308Z,60.26
2022-12-22T00:04:48.218Z,58.97
2022-12-22T00:05:48.203Z,59.78
2022-12-22T00:06:48.207Z,60.75
2022-12-22T00:07:48.187Z,58.97
2022-12-22T00:08:48.184Z,62.20
2022-12-22T00:09:48.150Z,59.78
2022-12-22T00:10:48.152Z,60.75
2022-12-22T00:11:48.160Z,58.49
2022-12-22T00:12:48.132Z,58.49
2022-12-22T00:13:48.122Z,58.97
2022-12-22T00:14:48.116Z,61.07
2022-12-22T00:15:48.098Z,61.71
2022-12-22T00:16:48.220Z,60.75
2022-12-22T00:17:48.077Z,59.94
2022-12-22T00:18:48.062Z,58.65
2022-12-22T00:19:48.073Z,59.14
2022-12-22T00:20:48.057Z,59.30
2022-12-22T00:21:48.056Z,59.62
2022-12-22T00:22:48.040Z,59.62
2022-12-22T00:23:48.024Z,61.87
2022-12-22T00:24:48.016Z,59.14
2022-12-22T00:25:48.020Z,60.59
2022-12-22T00:26:48.007Z,58.33
2022-12-22T00:27:47.993Z,58.49
2022-12-22T00:28:47.974Z,60.91
2022-12-22T00:29:47.970Z,59.14
2022-12-22T00:30:48.003Z,59.62
2022-12-22T00:31:47.955Z,59.30
2022-12-22T00:32:47.926Z,58.49
2022-12-22T00:33:47.930Z,57.52
2022-12-22T00:34:47.919Z,58.17
2022-12-22T00:35:47.902Z,61.55
2022-12-22T00:36:47.918Z,61.07
2022-12-22T00:37:47.893Z,60.26
2022-12-22T00:38:47.875Z,58.97
2022-12-22T00:39:47.873Z,58.49
2022-12-22T00:40:47.846Z,60.42
2022-12-22T00:41:47.860Z,58.49
2022-12-22T00:42:47.832Z,58.17
2022-12-22T00:43:47.833Z,59.30
2022-12-22T00:44:47.810Z,58.17
2022-12-22T00:45:47.912Z,59.30
2022-12-22T00:46:47.820Z,60.10
2022-12-22T00:47:47.788Z,58.33
2022-12-22T00:48:47.788Z,56.88
2022-12-22T00:49:48.771Z,57.36
2022-12-22T00:50:47.763Z,60.59
2022-12-22T00:51:47.789Z,58.49
2022-12-22T00:52:47.730Z,58.81
2022-12-22T00:53:47.732Z,58.49
2022-12-22T00:54:47.724Z,59.62
2022-12-22T00:55:47.718Z,58.01
2022-12-22T00:56:47.708Z,60.91
2022-12-22T00:57:47.694Z,57.69
2022-12-22T00:58:47.683Z,59.62
2022-12-22T00:59:47.676Z,58.81
2022-12-22T01:00:47.656Z,61.07
2022-12-22T01:01:47.854Z,56.72
2022-12-22T01:02:47.755Z,59.78
2022-12-22T01:03:47.758Z,58.17
2022-12-22T01:04:47.633Z,58.81
2022-12-22T01:05:47.615Z,56.40
2022-12-22T01:06:47.650Z,60.59
2022-12-22T01:07:47.598Z,60.10
2022-12-22T01:08:47.588Z,60.59
2022-12-22T01:09:47.580Z,60.10
2022-12-22T01:10:47.568Z,60.59
2022-12-22T01:11:47.578Z,60.75
2022-12-22T01:12:47.545Z,58.97
2022-12-22T01:13:47.538Z,57.85
2022-12-22T01:14:47.530Z,58.33
2022-12-22T01:15:47.582Z,57.20
2022-12-22T01:16:47.534Z,57.85
2022-12-22T01:17:47.499Z,59.30
2022-12-22T01:18:47.490Z,58.81
2022-12-22T01:19:47.484Z,60.10
2022-12-22T01:20:47.459Z,57.69
2022-12-22T01:21:47.490Z,60.42
2022-12-22T01:22:47.454Z,58.01
2022-12-22T01:23:47.448Z,59.62
2022-12-22T01:24:47.448Z,56.72
2022-12-22T01:25:47.425Z,56.56
2022-12-22T01:26:47.434Z,58.33
2022-12-22T01:27:47.428Z,56.40
2022-12-22T01:28:47.395Z,58.49
2022-12-22T01:29:47.387Z,58.49
2022-12-22T01:30:47.427Z,58.97
2022-12-22T01:31:47.382Z,56.56
2022-12-22T01:32:47.344Z,59.62
2022-12-22T01:33:47.408Z,58.33
2022-12-22T01:34:47.334Z,57.36
2022-12-22T01:35:47.323Z,55.43
2022-12-22T01:36:47.336Z,58.49
2022-12-22T01:37:47.311Z,57.52
2022-12-22T01:38:47.297Z,56.07
2022-12-22T01:39:47.296Z,58.81
2022-12-22T01:40:47.273Z,57.20
2022-12-22T01:41:47.267Z,58.01
2022-12-22T01:42:47.278Z,58.49
2022-12-22T01:43:47.248Z,58.17
2022-12-22T01:44:47.240Z,56.88
2022-12-22T01:45:47.229Z,58.17
2022-12-22T01:46:47.403Z,59.46
2022-12-22T01:47:47.236Z,59.78
2022-12-22T01:48:47.195Z,59.46
2022-12-22T01:49:47.190Z,59.94
2022-12-22T01:50:47.180Z,59.14
2022-12-22T01:51:47.201Z,58.01
2022-12-22T01:52:47.175Z,58.33
2022-12-22T01:53:47.156Z,62.52
2022-12-22T01:54:47.145Z,58.01
2022-12-22T01:55:47.140Z,60.26
2022-12-22T01:56:47.113Z,57.85
2022-12-22T01:57:47.137Z,58.17
2022-12-22T01:58:47.103Z,61.07
2022-12-22T01:59:47.185Z,61.07
2022-12-22T02:00:47.082Z,61.39
2022-12-22T02:01:47.218Z,58.65
2022-12-22T02:02:47.167Z,60.10
2022-12-22T02:03:47.139Z,58.17
2022-12-22T02:04:47.068Z,58.81
2022-12-22T02:05:47.054Z,57.20
2022-12-22T02:06:47.032Z,57.85
2022-12-22T02:07:47.044Z,56.07
2022-12-22T02:08:47.020Z,58.01
2022-12-22T02:09:47.006Z,57.69
2022-12-22T02:10:46.988Z,55.75
2022-12-22T02:11:46.997Z,57.20
2022-12-22T02:12:46.989Z,58.97
2022-12-22T02:13:46.981Z,60.59
2022-12-22T02:14:46.968Z,59.94
2022-12-22T02:15:46.973Z,57.36
2022-12-22T02:16:46.948Z,58.65
2022-12-22T02:17:46.942Z,58.65
2022-12-22T02:18:46.955Z,60.59
2022-12-22T02:19:46.930Z,58.49
2022-12-22T02:20:46.907Z,59.78
2022-12-22T02:21:46.882Z,59.30
2022-12-22T02:22:46.892Z,57.85
2022-12-22T02:23:46.871Z,58.97
2022-12-22T02:24:46.849Z,59.62
2022-12-22T02:25:46.855Z,57.52
2022-12-22T02:26:46.838Z,59.14
2022-12-22T02:27:46.852Z,57.36
2022-12-22T02:28:46.810Z,58.65
2022-12-22T02:29:46.803Z,57.04
2022-12-22T02:30:46.801Z,57.85
2022-12-22T02:31:46.892Z,60.75
2022-12-22T02:32:46.790Z,57.52
2022-12-22T02:33:46.765Z,58.49
2022-12-22T02:34:46.765Z,56.40
2022-12-22T02:35:47.752Z,57.69
2022-12-22T02:36:46.736Z,58.33
2022-12-22T02:37:46.737Z,58.01
2022-12-22T02:38:46.719Z,57.52
2022-12-22T02:39:46.701Z,58.49
2022-12-22T02:40:46.696Z,59.30
2022-12-22T02:41:46.684Z,57.85
2022-12-22T02:42:46.693Z,59.78
2022-12-22T02:43:46.668Z,58.81
2022-12-22T02:44:46.668Z,59.30
2022-12-22T02:45:46.647Z,60.59
2022-12-22T02:46:46.655Z,59.62
2022-12-22T02:47:46.652Z,59.14
2022-12-22T02:48:46.622Z,55.91
2022-12-22T02:49:46.611Z,57.04
2022-12-22T02:50:46.597Z,58.97
2022-12-22T02:51:46.592Z,58.17
2022-12-22T02:52:46.596Z,58.81
2022-12-22T02:53:46.572Z,57.69
2022-12-22T02:54:46.561Z,56.40
2022-12-22T02:55:46.555Z,59.30
2022-12-22T02:56:46.548Z,57.69
2022-12-22T02:57:46.560Z,58.49
2022-12-22T02:58:46.536Z,58.01
2022-12-22T02:59:46.520Z,58.65
2022-12-22T03:00:46.512Z,56.40
2022-12-22T03:01:46.624Z,57.36
2022-12-22T03:02:46.769Z,57.36
2022-12-22T03:03:46.506Z,59.30
2022-12-22T03:04:46.468Z,58.81
2022-12-22T03:05:46.461Z,59.30
2022-12-22T03:06:46.442Z,60.59
2022-12-22T03:10:32.054Z,57.36
2022-12-22T03:11:32.081Z,58.81
2022-12-22T03:12:32.050Z,59.46
2022-12-22T03:13:32.037Z,60.26
2022-12-22T03:14:32.009Z,60.42
2022-12-22T03:15:32.007Z,57.85
2022-12-22T03:16:32.039Z,58.17
2022-12-22T03:17:31.983Z,58.33
2022-12-22T03:18:31.991Z,58.33
2022-12-22T03:19:31.964Z,57.69
2022-12-22T03:20:31.949Z,58.33
2022-12-22T03:21:31.951Z,58.17
2022-12-22T03:22:31.937Z,57.85
2022-12-22T03:23:31.937Z,57.52
2022-12-22T03:24:31.917Z,58.33
2022-12-22T03:25:31.905Z,58.01
2022-12-22T03:26:31.916Z,58.49
2022-12-22T03:27:31.886Z,61.39
2022-12-22T03:28:33.010Z,58.01
2022-12-22T03:29:33.010Z,57.85
2022-12-22T03:30:32.975Z,59.46
2022-12-22T03:31:33.008Z,58.01
2022-12-22T03:32:32.954Z,60.91
2022-12-22T03:33:32.951Z,60.75
2022-12-22T03:34:32.931Z,58.97
2022-12-22T03:35:32.921Z,59.30
2022-12-22T03:36:32.919Z,59.46
2022-12-22T03:37:32.896Z,60.59
2022-12-22T03:38:32.907Z,58.97
2022-12-22T03:39:32.900Z,58.81
2022-12-22T03:40:32.899Z,59.46
2022-12-22T03:41:32.868Z,60.10
2022-12-22T03:42:32.862Z,59.78
2022-12-22T03:43:32.853Z,59.14
2022-12-22T03:44:32.825Z,61.07
2022-12-22T03:45:32.823Z,60.91
2022-12-22T03:46:32.992Z,60.75
2022-12-22T03:47:32.798Z,60.26
2022-12-22T03:48:32.810Z,60.91
2022-12-22T03:49:32.776Z,58.33
2022-12-22T03:50:32.786Z,59.62
2022-12-22T03:51:32.817Z,58.49
2022-12-22T03:52:32.753Z,58.49
2022-12-22T03:53:32.749Z,58.65
2022-12-22T03:54:32.740Z,58.17
2022-12-22T03:55:32.722Z,59.14
2022-12-22T03:56:32.723Z,62.20
2022-12-22T03:57:32.702Z,59.78
2022-12-22T03:58:32.706Z,59.62
2022-12-22T03:59:32.688Z,58.97
2022-12-22T04:00:32.672Z,59.14
2022-12-22T04:01:32.836Z,58.17
2022-12-22T04:02:32.779Z,58.65
2022-12-22T04:03:32.800Z,61.55
2022-12-22T04:04:32.630Z,59.30
2022-12-22T04:05:32.650Z,59.30
2022-12-22T04:06:33.632Z,59.94
2022-12-22T04:07:32.600Z,61.55
2022-12-22T04:08:32.605Z,61.55
2022-12-22T04:09:32.579Z,60.42
2022-12-22T04:10:32.582Z,60.10
2022-12-22T04:11:32.554Z,58.81
2022-12-22T04:12:32.545Z,60.59
2022-12-22T04:14:04.477Z,60.91
2022-12-22T04:14:34.628Z,61.55
2022-12-22T04:15:33.527Z,59.78
2022-12-22T04:16:32.601Z,60.42
2022-12-22T04:17:32.504Z,60.26
2022-12-22T04:18:32.511Z,61.07
2022-12-22T04:19:32.499Z,58.01
2022-12-22T04:20:32.467Z,61.39
2022-12-22T04:21:32.474Z,59.62
2022-12-22T04:22:32.466Z,62.36
2022-12-22T04:23:32.444Z,62.04
2022-12-22T04:24:32.464Z,61.87
2022-12-22T04:25:32.422Z,60.91
2022-12-22T04:26:32.415Z,61.55
2022-12-22T04:27:32.453Z,59.78
2022-12-22T04:28:32.440Z,60.26
2022-12-22T04:29:32.406Z,61.39
2022-12-22T04:30:32.365Z,60.10
2022-12-22T04:31:32.377Z,59.62
2022-12-22T04:32:32.351Z,59.62
2022-12-22T04:33:32.342Z,61.39
2022-12-22T04:34:32.347Z,62.04
2022-12-22T04:35:32.318Z,61.55
2022-12-22T04:36:32.308Z,59.14
2022-12-22T04:37:32.295Z,60.59
2022-12-22T04:38:32.291Z,60.75
2022-12-22T04:39:32.302Z,61.23
2022-12-22T04:40:32.281Z,61.55
2022-12-22T04:41:32.255Z,63.00
2022-12-22T04:42:32.253Z,60.10
2022-12-22T04:43:32.244Z,61.71
2022-12-22T04:44:32.249Z,61.87
2022-12-22T04:45:32.309Z,61.23
2022-12-22T04:46:32.335Z,61.23
2022-12-22T04:47:32.212Z,62.20
2022-12-22T04:48:32.197Z,61.71
2022-12-22T04:49:32.199Z,63.49
2022-12-22T04:50:32.182Z,62.36
2022-12-22T04:51:32.165Z,62.36
2022-12-22T04:52:32.155Z,61.71
2022-12-22T04:53:32.149Z,63.49
2022-12-22T04:54:32.159Z,63.33
2022-12-22T04:55:32.136Z,63.00
2022-12-22T04:56:32.115Z,62.68
2022-12-22T04:57:35.484Z,60.91
2022-12-22T04:58:34.117Z,61.71
2022-12-22T04:59:32.121Z,61.07
2022-12-22T05:00:32.092Z,60.59
2022-12-22T05:01:32.193Z,61.71
2022-12-22T05:02:32.153Z,63.16
2022-12-22T05:03:32.096Z,61.07
2022-12-22T05:04:32.068Z,59.94
2022-12-22T05:05:32.055Z,63.16
2022-12-22T05:06:32.030Z,61.39
2022-12-22T05:07:32.047Z,61.55
2022-12-22T05:08:32.004Z,62.36
2022-12-22T05:09:32.026Z,61.87
2022-12-22T05:10:31.996Z,63.33
2022-12-22T05:11:31.985Z,62.84
2022-12-22T05:12:31.956Z,62.04
2022-12-22T05:13:31.971Z,63.00
2022-12-22T05:14:31.966Z,62.20
2022-12-22T05:15:31.964Z,61.55
2022-12-22T05:16:31.966Z,62.84
2022-12-22T05:17:31.926Z,63.16
2022-12-22T05:18:31.921Z,62.68
2022-12-22T05:19:31.930Z,61.23
2022-12-22T05:20:32.063Z,62.52
2022-12-22T05:21:31.907Z,62.68
2022-12-22T05:22:31.916Z,62.68
2022-12-22T05:23:31.867Z,62.04
2022-12-22T05:24:31.862Z,61.23
2022-12-22T05:25:35.155Z,62.52
2022-12-22T05:26:32.834Z,63.33
2022-12-22T05:27:31.834Z,62.52
2022-12-22T05:28:31.806Z,62.84
2022-12-22T05:29:31.832Z,64.13
2022-12-22T05:30:31.840Z,61.87
2022-12-22T05:31:31.786Z,59.94
2022-12-22T05:32:31.762Z,62.52
2022-12-22T05:33:32.769Z,62.68
2022-12-22T05:34:31.795Z,62.52
2022-12-22T05:35:31.748Z,62.36
2022-12-22T05:36:31.743Z,63.33
2022-12-22T05:37:31.735Z,62.36
2022-12-22T05:38:31.726Z,63.97
2022-12-22T05:39:31.745Z,62.52
2022-12-22T05:40:31.707Z,63.65
2022-12-22T05:41:31.696Z,63.33
2022-12-22T05:42:31.680Z,61.71
2022-12-22T05:43:31.667Z,63.16
2022-12-22T05:44:31.654Z,62.04
2022-12-22T05:45:31.665Z,62.68
2022-12-22T05:46:31.658Z,61.71
2022-12-22T05:47:31.630Z,62.04
2022-12-22T05:48:37.368Z,62.84
2022-12-22T05:49:33.614Z,64.78
2022-12-22T05:50:31.624Z,63.00
2022-12-22T05:51:31.592Z,61.23
2022-12-22T05:52:31.581Z,61.71
2022-12-22T05:53:31.580Z,64.78
2022-12-22T05:54:31.582Z,63.49
2022-12-22T05:55:31.569Z,62.52
2022-12-22T05:56:31.539Z,61.23
2022-12-22T05:57:31.537Z,63.81
2022-12-22T05:58:31.535Z,62.68
2022-12-22T05:59:31.514Z,62.68
2022-12-22T06:00:31.528Z,62.36
2022-12-22T06:01:31.559Z,63.16
2022-12-22T06:02:31.676Z,64.45
2022-12-22T06:03:31.652Z,63.00
2022-12-22T06:04:31.522Z,62.20
2022-12-22T06:05:31.466Z,63.33
2022-12-22T06:06:31.434Z,62.68
2022-12-22T06:07:31.436Z,64.45
2022-12-22T06:08:31.418Z,62.68
2022-12-22T06:09:31.404Z,63.97
2022-12-22T06:10:31.406Z,62.68
2022-12-22T06:11:32.395Z,63.65
2022-12-22T06:12:31.374Z,63.00
2022-12-22T06:13:31.383Z,64.61
2022-12-22T06:14:31.369Z,62.84
2022-12-22T06:15:31.377Z,63.81
2022-12-22T06:16:31.452Z,62.20
2022-12-22T06:17:31.338Z,63.49
2022-12-22T06:18:31.326Z,62.84
2022-12-22T06:19:31.331Z,65.58
2022-12-22T06:20:31.336Z,65.10
2022-12-22T06:21:31.315Z,63.81
2022-12-22T06:22:31.292Z,62.68
2022-12-22T06:23:31.276Z,62.84
2022-12-22T06:24:31.261Z,61.55
2022-12-22T06:25:31.278Z,61.71
2022-12-22T06:26:31.240Z,63.33
2022-12-22T06:27:31.914Z,64.13
2022-12-22T06:28:31.243Z,63.49
2022-12-22T06:29:31.220Z,63.16
2022-12-22T06:30:33.661Z,64.13
2022-12-22T06:31:32.276Z,64.61
2022-12-22T06:32:31.200Z,63.97
2022-12-22T06:33:31.176Z,63.49
2022-12-22T06:34:31.173Z,63.16
2022-12-22T06:35:31.170Z,63.65
2022-12-22T06:36:31.136Z,63.81
2022-12-22T06:37:31.130Z,64.29
2022-12-22T06:38:31.122Z,64.13
2022-12-22T06:39:31.349Z,64.13
2022-12-22T06:40:31.125Z,63.97
2022-12-22T06:41:31.100Z,61.07
2022-12-22T06:42:31.093Z,64.61
2022-12-22T06:43:31.083Z,63.00
2022-12-22T06:44:31.067Z,63.97
2022-12-22T06:45:31.086Z,65.10
2022-12-22T06:46:31.120Z,63.97
2022-12-22T06:47:31.205Z,63.49
2022-12-22T06:48:31.027Z,63.65
2022-12-22T06:49:31.026Z,63.16
2022-12-22T06:50:31.025Z,62.84
2022-12-22T06:51:30.995Z,63.16
2022-12-22T06:52:30.984Z,63.33
2022-12-22T06:53:31.015Z,61.55
2022-12-22T06:54:30.977Z,62.84
2022-12-22T06:55:31.002Z,63.81
2022-12-22T06:56:30.958Z,64.61
2022-12-22T06:57:30.934Z,65.10
2022-12-22T06:58:30.934Z,64.45
2022-12-22T06:59:30.920Z,62.84
2022-12-22T07:00:30.916Z,62.68
2022-12-22T07:01:30.977Z,63.49
2022-12-22T07:02:31.034Z,64.45
2022-12-22T07:03:30.989Z,62.36
2022-12-22T07:04:30.895Z,64.13
2022-12-22T07:05:30.886Z,63.81
2022-12-22T07:06:30.903Z,62.36
2022-12-22T07:07:30.846Z,63.81
2022-12-22T07:08:30.818Z,61.87
2022-12-22T07:09:30.815Z,62.04
2022-12-22T07:10:30.824Z,63.65
2022-12-22T07:11:30.810Z,62.20
2022-12-22T07:12:30.787Z,64.13
2022-12-22T07:13:30.788Z,63.81
2022-12-22T07:14:30.802Z,61.71
2022-12-22T07:15:30.778Z,62.04
2022-12-22T07:16:30.837Z,62.68
2022-12-22T07:17:30.754Z,61.87
2022-12-22T07:18:30.739Z,63.65
2022-12-22T07:19:30.716Z,64.45
2022-12-22T07:20:30.724Z,63.33
2022-12-22T07:21:30.704Z,63.49
2022-12-22T07:22:31.303Z,63.33
2022-12-22T07:23:31.740Z,63.00
2022-12-22T07:24:30.672Z,62.20
2022-12-22T07:25:30.689Z,62.20
2022-12-22T07:26:30.662Z,62.84
2022-12-22T07:27:30.637Z,64.45
2022-12-22T07:28:30.633Z,62.68
2022-12-22T07:29:30.623Z,63.49
2022-12-22T07:30:30.611Z,64.45
2022-12-22T07:31:30.633Z,62.84
2022-12-22T07:32:30.598Z,63.49
2022-12-22T07:33:30.578Z,61.87
2022-12-22T07:34:30.564Z,63.16
2022-12-22T07:35:30.558Z,61.55
2022-12-22T07:36:30.565Z,63.33
2022-12-22T07:37:30.541Z,60.91
2022-12-22T07:38:31.427Z,63.33
2022-12-22T07:39:30.505Z,62.68
2022-12-22T07:40:30.518Z,62.52
2022-12-22T07:41:30.519Z,61.71
2022-12-22T07:42:30.494Z,63.49
2022-12-22T07:43:30.511Z,64.45
2022-12-22T07:44:30.471Z,63.33
2022-12-22T07:45:30.467Z,62.36
2022-12-22T07:46:30.496Z,63.49
2022-12-22T07:47:35.272Z,62.20
2022-12-22T07:48:31.450Z,64.13
2022-12-22T07:49:30.430Z,61.87
2022-12-22T07:50:30.421Z,63.65
2022-12-22T07:51:30.426Z,65.58
2022-12-22T07:52:30.418Z,63.65
2022-12-22T07:53:30.386Z,61.55
2022-12-22T07:54:30.381Z,64.45
2022-12-22T07:55:30.363Z,64.13
2022-12-22T07:56:30.377Z,63.00
2022-12-22T07:57:30.349Z,63.49
2022-12-22T07:58:30.348Z,63.81
2022-12-22T07:59:30.325Z,63.49
2022-12-22T08:00:30.347Z,62.04
2022-12-22T08:01:30.424Z,62.68
2022-12-22T08:02:36.919Z,62.04
2022-12-22T08:03:31.301Z,63.33
2022-12-22T08:04:30.321Z,62.04
2022-12-22T08:05:30.285Z,62.36
2022-12-22T08:06:30.284Z,62.84
2022-12-22T08:07:30.245Z,63.00
2022-12-22T08:08:30.245Z,64.13
2022-12-22T08:09:30.236Z,63.81
2022-12-22T08:10:30.231Z,64.13
2022-12-22T08:11:30.222Z,62.68
2022-12-22T08:12:30.273Z,63.49
2022-12-22T08:13:30.194Z,63.49
2022-12-22T08:14:30.192Z,62.52
2022-12-22T08:15:30.188Z,61.55
2022-12-22T08:16:30.229Z,63.81
2022-12-22T08:17:30.165Z,64.45
2022-12-22T08:18:30.170Z,64.29
2022-12-22T08:19:30.138Z,63.65
2022-12-22T08:20:30.126Z,63.16
2022-12-22T08:21:30.132Z,63.81
2022-12-22T08:22:30.175Z,63.49
2022-12-22T08:23:30.092Z,63.16
2022-12-22T08:24:30.086Z,62.68
2022-12-22T08:25:30.085Z,62.04
2022-12-22T08:26:30.100Z,63.65
2022-12-22T08:27:30.054Z,64.94
2022-12-22T08:28:30.079Z,64.61
2022-12-22T08:29:30.039Z,65.10
2022-12-22T08:30:30.057Z,63.49
2022-12-22T08:31:30.122Z,64.78
2022-12-22T08:32:30.039Z,64.78
2022-12-22T08:33:30.014Z,64.13
2022-12-22T08:34:29.995Z,62.52
2022-12-22T08:35:29.990Z,65.90
2022-12-22T08:36:29.983Z,63.00
2022-12-22T08:37:29.975Z,63.16
2022-12-22T08:38:29.955Z,64.29
2022-12-22T08:39:29.943Z,64.78
2022-12-22T08:40:29.931Z,64.94
2022-12-22T08:41:29.948Z,64.13
2022-12-22T08:42:29.909Z,63.49
2022-12-22T08:43:29.899Z,64.29
2022-12-22T08:44:29.900Z,62.68
2022-12-22T08:45:29.878Z,64.94
2022-12-22T08:46:29.907Z,62.84
2022-12-22T08:47:29.976Z,65.26
2022-12-22T08:48:29.848Z,61.87
2022-12-22T08:49:29.841Z,63.65
2022-12-22T08:50:29.835Z,63.33
2022-12-22T08:51:29.840Z,63.65
2022-12-22T08:52:29.812Z,63.65
2022-12-22T08:54:03.323Z,64.29
2022-12-22T08:54:31.801Z,63.65
2022-12-22T08:55:29.779Z,64.13
2022-12-22T08:56:29.804Z,63.81
2022-12-22T08:57:29.767Z,63.65
2022-12-22T08:58:29.767Z,63.49
2022-12-22T08:59:29.738Z,63.65
2022-12-22T09:00:29.797Z,64.13
2022-12-22T09:01:29.949Z,63.16
2022-12-22T09:02:29.858Z,63.81
2022-12-22T09:03:29.809Z,63.16
2022-12-22T09:04:29.695Z,63.16
2022-12-22T09:05:29.687Z,63.97
2022-12-22T09:06:33.308Z,63.16
2022-12-22T09:07:30.680Z,62.68
2022-12-22T09:08:29.659Z,63.65
2022-12-22T09:09:29.647Z,64.78
2022-12-22T09:10:29.620Z,64.78
2022-12-22T09:11:29.644Z,64.61
2022-12-22T09:12:29.631Z,62.52
2022-12-22T09:13:29.603Z,63.49
2022-12-22T09:14:29.584Z,63.49
2022-12-22T09:15:29.587Z,63.49
2022-12-22T09:16:29.602Z,63.16
2022-12-22T09:17:29.680Z,64.29
2022-12-22T09:18:29.557Z,65.42
2022-12-22T09:19:29.589Z,65.10
2022-12-22T09:20:29.536Z,63.16
2022-12-22T09:21:29.527Z,63.16
2022-12-22T09:22:29.549Z,63.49
2022-12-22T09:23:29.508Z,61.87
2022-12-22T09:24:29.495Z,63.16
2022-12-22T09:25:29.518Z,63.97
2022-12-22T09:26:29.474Z,62.04
2022-12-22T09:27:29.488Z,63.00
2022-12-22T09:28:29.453Z,64.78
2022-12-22T09:29:29.448Z,64.78
2022-12-22T09:30:29.449Z,63.16
2022-12-22T09:31:29.512Z,63.00
2022-12-22T09:32:29.432Z,64.13
2022-12-22T09:33:29.435Z,62.68
2022-12-22T09:34:29.406Z,63.33
2022-12-22T09:35:29.395Z,64.45
2022-12-22T09:36:29.385Z,63.33
2022-12-22T09:37:29.383Z,63.65
2022-12-22T09:38:29.354Z,64.13
2022-12-22T09:39:29.724Z,64.61
2022-12-22T09:40:29.355Z,64.13
2022-12-22T09:41:29.333Z,64.78
2022-12-22T09:42:29.322Z,64.29
2022-12-22T09:43:29.323Z,63.65
2022-12-22T09:44:29.299Z,65.26
2022-12-22T09:45:29.361Z,64.29
2022-12-22T09:46:29.324Z,65.26
2022-12-22T09:47:29.281Z,64.94
2022-12-22T09:48:29.271Z,64.94
2022-12-22T09:49:29.263Z,67.51
2022-12-22T09:50:29.240Z,67.84
2022-12-22T09:51:29.232Z,67.03
2022-12-22T09:52:29.240Z,66.06
2022-12-22T09:53:29.208Z,68.32
2022-12-22T09:54:29.205Z,68.00
2022-12-22T09:55:29.190Z,66.55
2022-12-22T09:56:29.216Z,66.39
2022-12-22T09:57:29.804Z,65.74
2022-12-22T09:58:29.179Z,66.39
2022-12-22T09:59:29.201Z,66.39
2022-12-22T10:00:29.144Z,66.06
2022-12-22T10:01:29.259Z,66.06
2022-12-22T10:02:29.253Z,66.39
2022-12-22T10:03:29.202Z,66.39
2022-12-22T10:04:29.108Z,65.74
2022-12-22T10:05:29.109Z,67.03
2022-12-22T10:06:29.092Z,66.39
2022-12-22T10:07:29.085Z,67.84
2022-12-22T10:08:29.077Z,66.71
2022-12-22T10:09:49.670Z,67.03
2022-12-22T10:10:31.051Z,67.19
2022-12-22T10:11:29.035Z,66.39
2022-12-22T10:12:29.034Z,66.39
2022-12-22T10:13:29.011Z,68.00
2022-12-22T10:14:55.422Z,67.35
2022-12-22T10:15:28.989Z,67.84
2022-12-22T10:16:29.034Z,68.16
2022-12-22T10:17:29.015Z,67.35
2022-12-22T10:18:28.970Z,66.55
2022-12-22T10:19:28.951Z,68.96
2022-12-22T10:20:28.930Z,67.84
2022-12-22T10:21:28.932Z,69.13
2022-12-22T10:22:28.931Z,67.35
2022-12-22T10:23:28.913Z,67.03
2022-12-22T10:24:28.913Z,67.84
2022-12-22T10:25:35.764Z,67.84
2022-12-22T10:26:31.425Z,68.00
2022-12-22T10:27:29.887Z,66.55
2022-12-22T10:28:28.862Z,67.84
2022-12-22T10:29:28.855Z,67.03
2022-12-22T10:30:28.837Z,67.51
2022-12-22T10:31:28.908Z,68.80
2022-12-22T10:32:28.834Z,68.00
2022-12-22T10:33:28.816Z,68.96
2022-12-22T10:34:28.799Z,69.45
2022-12-22T10:35:28.791Z,69.45
2022-12-22T10:36:28.816Z,68.96
2022-12-22T10:37:28.791Z,67.19
2022-12-22T10:38:28.759Z,67.84
2022-12-22T10:39:28.814Z,67.51
2022-12-22T10:40:28.737Z,68.00
2022-12-22T10:41:28.739Z,68.48
2022-12-22T10:42:28.737Z,68.32
2022-12-22T10:43:28.730Z,67.51
2022-12-22T10:44:28.695Z,68.32
2022-12-22T10:45:28.688Z,69.45
2022-12-22T10:46:28.709Z,68.64
2022-12-22T10:47:28.686Z,68.16
2022-12-22T10:48:28.659Z,66.55
2022-12-22T10:49:28.682Z,67.51
2022-12-22T10:50:28.641Z,70.42
2022-12-22T10:51:28.636Z,69.93
2022-12-22T10:52:31.776Z,70.58
2022-12-22T10:53:29.605Z,69.77
2022-12-22T10:54:28.624Z,70.09
2022-12-22T10:55:28.643Z,69.93
2022-12-22T10:56:28.596Z,71.54
2022-12-22T10:57:28.570Z,72.03
2022-12-22T10:58:28.582Z,71.54
2022-12-22T10:59:28.564Z,71.87
2022-12-22T11:00:28.537Z,70.25
2022-12-22T11:01:28.662Z,70.25
2022-12-22T11:02:28.812Z,70.74
2022-12-22T11:03:28.616Z,70.90
2022-12-22T11:04:28.525Z,70.25
2022-12-22T11:05:28.499Z,71.06
2022-12-22T11:06:28.485Z,72.19
2022-12-22T11:07:28.479Z,69.93
2022-12-22T11:08:28.474Z,69.29
2022-12-22T11:09:35.945Z,68.64
2022-12-22T11:10:30.456Z,68.96
2022-12-22T11:11:28.430Z,70.74
2022-12-22T11:12:28.425Z,71.70
2022-12-22T11:13:28.434Z,70.74
2022-12-22T11:14:28.409Z,71.38
2022-12-22T11:15:28.407Z,72.03
2022-12-22T11:16:28.417Z,71.22
2022-12-22T11:17:28.396Z,72.19
2022-12-22T11:18:28.376Z,71.06
2022-12-22T11:19:28.357Z,69.77
2022-12-22T11:20:28.357Z,70.74
2022-12-22T11:21:28.357Z,71.22
2022-12-22T11:22:28.346Z,71.54
2022-12-22T11:23:28.448Z,71.87
2022-12-22T11:24:28.319Z,69.77
2022-12-22T11:25:28.319Z,69.77
2022-12-22T11:26:28.304Z,69.93
2022-12-22T11:27:28.291Z,69.61
2022-12-22T11:28:28.305Z,70.90
2022-12-22T11:29:28.293Z,71.54
2022-12-22T11:30:28.265Z,70.74
2022-12-22T11:31:28.300Z,70.90
2022-12-22T11:32:28.242Z,71.54
2022-12-22T11:33:28.253Z,71.38
2022-12-22T11:34:28.230Z,72.03
2022-12-22T11:35:28.309Z,71.54
2022-12-22T11:36:28.208Z,70.58
2022-12-22T11:37:28.195Z,70.58
2022-12-22T11:38:28.195Z,71.38
2022-12-22T11:39:28.175Z,71.38
2022-12-22T11:40:28.173Z,68.96
2022-12-22T11:41:28.154Z,69.61
2022-12-22T11:42:28.141Z,70.25
2022-12-22T11:43:28.152Z,71.70
2022-12-22T11:44:28.130Z,70.74
2022-12-22T11:45:28.106Z,70.25
2022-12-22T11:46:28.161Z,71.54
2022-12-22T11:47:28.100Z,71.38
2022-12-22T11:48:28.103Z,72.35
2022-12-22T11:49:28.082Z,71.22
2022-12-22T11:51:00.261Z,70.90
2022-12-22T11:51:29.054Z,72.03
2022-12-22T11:52:28.034Z,72.35
2022-12-22T11:53:28.088Z,72.83
2022-12-22T11:54:28.031Z,72.19
2022-12-22T11:55:28.055Z,71.70
2022-12-22T11:56:28.003Z,71.54
2022-12-22T11:57:28.007Z,72.83
2022-12-22T11:58:28.011Z,69.93
2022-12-22T11:59:27.988Z,69.61
2022-12-22T12:00:55.805Z,71.22
2022-12-22T12:01:30.022Z,71.54
2022-12-22T12:02:28.047Z,69.77
2022-12-22T12:03:29.028Z,69.77
2022-12-22T12:04:28.023Z,71.70
2022-12-22T12:05:27.927Z,72.35
2022-12-22T12:06:27.910Z,70.90
2022-12-22T12:07:27.898Z,71.70
2022-12-22T12:08:27.911Z,72.51
2022-12-22T12:09:27.879Z,71.54
2022-12-22T12:10:27.890Z,71.06
2022-12-22T12:11:27.869Z,70.90
2022-12-22T12:12:27.859Z,71.87
2022-12-22T12:13:33.263Z,69.45
2022-12-22T12:14:29.835Z,72.19
2022-12-22T12:15:27.828Z,71.06
2022-12-22T12:16:27.859Z,70.74
2022-12-22T12:17:27.808Z,69.13
2022-12-22T12:18:27.831Z,70.25
2022-12-22T12:19:28.784Z,70.25
2022-12-22T12:20:27.770Z,67.84
2022-12-22T12:21:27.760Z,69.93
2022-12-22T12:22:27.833Z,67.35
2022-12-22T12:23:27.775Z,66.87
2022-12-22T12:24:27.719Z,69.29
2022-12-22T12:25:27.719Z,69.45
2022-12-22T12:26:27.730Z,68.96
2022-12-22T12:27:27.698Z,68.00
2022-12-22T12:28:27.722Z,68.00
2022-12-22T12:29:27.697Z,68.64
2022-12-22T12:30:38.192Z,69.29
2022-12-22T12:31:29.702Z,70.58
2022-12-22T12:32:27.654Z,69.61
2022-12-22T12:33:27.656Z,70.25
2022-12-22T12:34:27.633Z,69.13
2022-12-22T12:35:27.622Z,70.74
2022-12-22T12:36:27.609Z,69.93
2022-12-22T12:37:27.653Z,69.93
2022-12-22T12:39:05.806Z,69.77
2022-12-22T12:39:29.583Z,70.58
2022-12-22T12:40:27.569Z,71.22
2022-12-22T12:41:27.577Z,69.77
2022-12-22T12:42:27.560Z,69.29
2022-12-22T12:43:27.544Z,68.64
2022-12-22T12:44:27.558Z,68.96
2022-12-22T12:45:27.533Z,69.13
2022-12-22T12:46:27.589Z,69.45
2022-12-22T12:47:27.562Z,69.93
2022-12-22T12:48:27.572Z,69.61
2022-12-22T12:49:27.511Z,68.48
2022-12-22T12:50:27.486Z,70.09
2022-12-22T12:51:27.468Z,70.58
2022-12-22T12:52:27.453Z,69.77
2022-12-22T12:53:27.445Z,70.58
2022-12-22T12:54:27.464Z,70.58
2022-12-22T12:55:31.920Z,68.96